ADDS METAR Data INFO
IDs: Format: Raw Decoded Include TAF

Data at: 2304 UTC 15 Jul 2018

KADM 152255Z AUTO 16006KT 10SM CLR 37/20 A2989 RMK AO2 T03730202
KADM 152235Z AUTO 18006G15KT 10SM CLR 37/20 A2989 RMK AO2 T03730200
KADM 152215Z AUTO 17006KT 10SM CLR 38/20 A2989 RMK AO2 T03750202
KADM 152155Z AUTO 19006KT 10SM CLR 38/20 A2989 RMK AO2 T03750202
KADM 152055Z 16009G14KT 10SM SCT080 38/20 A2993
KADM 151955Z 14008KT 10SM SCT070 38/21 A2995
KADM 151855Z 15007G14KT 10SM SKC 37/20 A2997
KADM 151755Z 15011G15KT 10SM SKC 36/23 A2999
KADM 151655Z 15005KT 10SM SKC 35/23 A3000
KADM 151555Z 16006KT 10SM SKC 33/23 A3000
KADM 151455Z 00000KT 10SM SKC 31/23 A3000
KADM 151355Z 00000KT 10SM SKC 29/23 A3001 RMK LTG DSNT NW
KADM 151255Z 00000KT 10SM SKC 27/22 A3000
KADM 151155Z 00000KT 10SM SKC 24/21 A3000
KADM 151135Z AUTO 00000KT 10SM CLR 23/21 A3000 RMK AO2 T02340211
KADM 151115Z AUTO 00000KT 10SM CLR 23/21 A2999 RMK AO2 T02320211
KADM 151055Z AUTO 00000KT 10SM CLR 24/21 A2998 RMK AO2 T02360211
KADM 151035Z AUTO 00000KT 10SM CLR 24/21 A2998 RMK AO2 T02360209
KADM 151015Z AUTO 00000KT 10SM CLR 23/21 A2998 RMK AO2 T02300211
KADM 150955Z AUTO 00000KT 10SM CLR 24/21 A2997 RMK AO2 T02360210
KADM 150935Z AUTO 00000KT 10SM CLR 23/21 A2998 RMK AO2 LTG DSNT NE T02330209
KADM 150915Z AUTO 00000KT 10SM CLR 25/21 A2998 RMK AO2 LTG DSNT NE T02460210
KADM 150855Z AUTO 00000KT 10SM CLR 25/21 A2997 RMK AO2 T02480209
KADM 150835Z AUTO 00000KT 10SM CLR 25/21 A2998 RMK AO2 T02490208
KADM 150815Z AUTO 00000KT 10SM CLR 24/21 A2997 RMK AO2 T02430211
KADM 150755Z AUTO 00000KT 10SM CLR 24/22 A2998 RMK AO2 T02370215
KADM 150735Z AUTO 00000KT 10SM CLR 25/21 A2998 RMK AO2 T02500208
KADM 150715Z AUTO 00000KT 10SM CLR 25/21 A2999 RMK AO2 T02490208
KADM 150655Z AUTO 00000KT 10SM CLR 26/21 A2998 RMK AO2 T02560207
KADM 150635Z AUTO 00000KT 10SM CLR 25/21 A2999 RMK AO2 T02460208
KADM 150615Z AUTO 00000KT 10SM CLR 26/21 A2998 RMK AO2 T02600206
KADM 150555Z AUTO 00000KT 10SM CLR 26/21 A2998 RMK AO2 T02600207 10358 20246 403760226
KADM 150535Z AUTO 00000KT 10SM CLR 25/21 A2998 RMK AO2 T02470210
KADM 150515Z AUTO 00000KT 10SM CLR 27/21 A2998 RMK AO2 LTG DSNT N T02650205
KADM 150455Z AUTO 00000KT 10SM CLR 27/21 A2998 RMK AO2 T02710205
KADM 150435Z AUTO 00000KT 10SM CLR 28/21 A2998 RMK AO2 T02790208
KADM 150415Z AUTO 00000KT 10SM CLR 29/21 A2998 RMK AO2 T02870207
KADM 150355Z AUTO 00000KT 10SM CLR 29/21 A2997 RMK AO2 T02900210
KADM 150335Z AUTO 00000KT 10SM CLR 29/22 A2997 RMK AO2 T02870219
KADM 150320Z AUTO 00000KT 10SM SCT090 29/22 A2997 RMK AO2 T02880220
KADM 150255Z AUTO 00000KT 10SM SCT080 SCT090 30/22 A2997 RMK AO2 LTG DSNT NW T03040215
KADM 150235Z AUTO 00000KT 10SM CLR 31/21 A2996 RMK AO2 T03100214
KADM 150215Z AUTO 00000KT 10SM CLR 31/21 A2995 RMK AO2 LTG DSNT NW T03130212
KADM 150155Z AUTO 00000KT 10SM CLR 32/21 A2995 RMK AO2 LTG DSNT W T03160210
KADM 150135Z AUTO 00000KT 10SM CLR 32/21 A2995 RMK AO2 T03180210
KADM 150115Z AUTO 00000KT 10SM CLR 33/21 A2994 RMK AO2 LTG DSNT W T03260206
KADM 150055Z AUTO 00000KT 10SM SCT090 SCT120 34/20 A2994 RMK AO2 T03360200
KADM 150035Z AUTO 00000KT 10SM SCT090 35/19 A2993 RMK AO2 T03470189
KADM 150015Z AUTO 16005KT 10SM CLR 36/19 A2993 RMK AO2 T03550189
KADM 142355Z AUTO 16006KT 10SM CLR 36/19 A2993 RMK AO2 T03580194 10376 20349
KADM 142335Z AUTO 16007KT 10SM CLR 36/20 A2993 RMK AO2 T03610197
KADM 142315Z AUTO 17009KT 10SM CLR 37/20 A2993 RMK AO2 T03650197
KADM 142255Z AUTO 15009KT 10SM SCT070 SCT120 37/21 A2993 RMK AO2 T03670206
KADM 142235Z AUTO 15008KT 10SM SCT070 37/21 A2994 RMK AO2 T03660205
KADM 142215Z AUTO 17008KT 10SM SCT070 37/20 A2994 RMK AO2 T03660204
KADM 142155Z AUTO 15008KT 10SM CLR 37/20 A2995 RMK AO2 T03710204
KADM 142055Z 15007KT 10SM SKC 37/20 A2997
KADM 141955Z 17007G14KT 10SM SCT070 37/21 A3000
KADM 141855Z 17010KT 10SM SKC 37/21 A3002
KADM 141755Z 13005KT 10SM SKC 35/22 A3004
KADM 141655Z 18005KT 10SM SKC 34/23 A3005
KADM 141555Z 20005KT 10SM SKC 33/23 A3005
KADM 141455Z 18005KT 10SM SKC 31/23 A3006
KADM 141355Z 18004KT 10SM SKC 29/23 A3006
KADM 141255Z 00000KT 10SM SKC 26/23 A3005
KADM 141155Z 11003KT 10SM SKC 23/22 A3004
KADM 141135Z AUTO 00000KT 10SM CLR 23/21 A3004 RMK AO2 T02270214
KADM 141115Z AUTO 00000KT 10SM CLR 24/22 A3004 RMK AO2 T02360216